M I D A S
Marine Information and Data Acquisition System
Tripno 1471 of the Zeeleeuw from 2008-02-21 08:08:07 to 2008-02-21 13:14:37
Back to CruiseResearch ActivitiesStationsMapUnderway DataData graphs

EquipmentUnitsComment
TimeDGPSUTC
LatitudeDGPSDM.mWGS84
LongitudeDGPSDM.mWGS84
TemperatureSBE03/SBE38deg celciusITS90
ConductivitySBE21S/mITS90
SalinitySBE21 Practical Salinity Units
ChlorophylAChelsea fluorimeterg/lCalibrated in Aceton
Missing or incorrect values are displayed as -999
Sea surface data collected by the RV Zeeleeuw from 2008-02-21 08:05:32 to 2008-02-21 13:29:38
                                                                                    Next 1000 lines
Time Latitude Longitude Temperature Conductivity Salinity ChlorophylA
2008-02-21 08:05:42 51°13.664 2°55.956 12.6747 -999 -999 -1.657694
2008-02-21 08:05:46 51°13.664 2°55.956 12.6839 -999 -999 -1.657694
2008-02-21 08:05:51 51°13.664 2°55.956 12.6887 -999 -999 -1.657694
2008-02-21 08:05:57 51°13.664 2°55.956 12.6829 -999 -999 -1.657694
2008-02-21 08:06:01 51°13.664 2°55.956 12.6901 -999 -999 -1.657694
2008-02-21 08:06:06 51°13.664 2°55.956 12.6868 -999 -999 -1.657694
2008-02-21 08:06:11 51°13.664 2°55.956 12.6844 -999 -999 -1.657694
2008-02-21 08:06:16 51°13.664 2°55.956 12.6821 -999 -999 -1.657694
2008-02-21 08:06:21 51°13.664 2°55.956 12.6812 -999 -999 -1.657694
2008-02-21 08:06:26 51°13.664 2°55.956 12.674 -999 -999 -1.657694
2008-02-21 08:06:31 51°13.665 2°55.956 12.6658 -999 -999 -1.657694
2008-02-21 08:06:37 51°13.664 2°55.956 12.6737 -999 -999 -1.657694
2008-02-21 08:06:42 51°13.664 2°55.956 12.6738 -999 -999 -1.657694
2008-02-21 08:06:46 51°13.664 2°55.956 12.6758 -999 -999 -1.657694
2008-02-21 08:06:52 51°13.664 2°55.956 12.6844 -999 -999 -1.657694
2008-02-21 08:06:57 51°13.664 2°55.956 12.6808 -999 -999 -1.657694
2008-02-21 08:07:01 51°13.664 2°55.956 12.6825 -999 -999 -1.657694
2008-02-21 08:07:06 51°13.664 2°55.956 12.6837 -999 -999 -1.657694
2008-02-21 08:07:11 51°13.664 2°55.956 12.682 -999 -999 -1.657694
2008-02-21 08:07:16 51°13.664 2°55.956 12.683 -999 -999 -1.657694
2008-02-21 08:07:21 51°13.664 2°55.956 12.6854 -999 -999 -1.657694
2008-02-21 08:07:26 51°13.664 2°55.956 12.6841 -999 -999 -1.657694
2008-02-21 08:07:31 51°13.663 2°55.956 12.681 -999 -999 -1.657694
2008-02-21 08:07:36 51°13.663 2°55.956 12.6814 -999 -999 -1.657694
2008-02-21 08:07:41 51°13.663 2°55.956 12.6825 -999 -999 -1.657694
2008-02-21 08:07:45 51°13.663 2°55.955 12.6802 -999 -999 -1.657694
2008-02-21 08:07:50 51°13.663 2°55.956 12.6757 -999 -999 -1.657694
2008-02-21 08:07:55 51°13.663 2°55.955 12.6776 -999 -999 -1.657694
2008-02-21 08:08:00 51°13.663 2°55.955 12.6777 -999 -999 -1.657694
2008-02-21 08:08:05 51°13.663 2°55.955 12.6802 -999 -999 -1.657694
2008-02-21 08:08:10 51°13.663 2°55.955 12.689 -999 -999 -1.657694
2008-02-21 08:08:14 51°13.663 2°55.955 12.6973 -999 -999 -1.657694
2008-02-21 08:08:20 51°13.663 2°55.955 12.7015 -999 -999 -1.657694
2008-02-21 08:08:25 51°13.663 2°55.955 12.6974 -999 -999 -1.657694
2008-02-21 08:08:29 51°13.663 2°55.955 12.6945 -999 -999 -1.657694
2008-02-21 08:08:34 51°13.662 2°55.955 12.6537 -999 -999 -1.657694
2008-02-21 08:08:39 51°13.663 2°55.955 12.5108 -999 -999 -1.657694
2008-02-21 08:08:44 51°13.663 2°55.955 12.585 -999 -999 -1.657694
2008-02-21 08:08:49 51°13.663 2°55.953 12.5733 -999 -999 -1.657694
2008-02-21 08:08:53 51°13.663 2°55.952 12.3041 -999 -999 -1.657694
2008-02-21 08:08:58 51°13.664 2°55.949 12.5973 -999 -999 -1.657694
2008-02-21 08:09:04 51°13.665 2°55.943 12.6393 -999 -999 -1.657694
2008-02-21 08:09:09 51°13.666 2°55.938 12.6623 -999 -999 -1.657694
2008-02-21 08:09:14 51°13.668 2°55.931 12.6522 -999 -999 -1.657694
2008-02-21 08:09:20 51°13.67 2°55.923 12.6823 -999 -999 -1.657694
2008-02-21 08:09:26 51°13.672 2°55.914 12.669 -999 -999 -1.657694
2008-02-21 08:09:32 51°13.674 2°55.904 12.6591 -999 -999 -1.657694
2008-02-21 08:09:37 51°13.676 2°55.896 12.6734 -999 -999 -1.657694
2008-02-21 08:09:42 51°13.678 2°55.888 12.6625 -999 -999 -1.657694
2008-02-21 08:09:47 51°13.68 2°55.879 12.6761 -999 -999 -1.657694
2008-02-21 08:09:52 51°13.682 2°55.87 12.7646 -999 -999 -1.657694
2008-02-21 08:09:57 51°13.683 2°55.862 12.7694 -999 -999 -1.657694
2008-02-21 08:10:02 51°13.685 2°55.854 12.7424 -999 -999 -1.657694
2008-02-21 08:10:07 51°13.686 2°55.846 12.7416 -999 -999 -1.657694
2008-02-21 08:10:12 51°13.688 2°55.838 12.7509 -999 -999 -1.657694
2008-02-21 08:10:17 51°13.689 2°55.831 12.7012 -999 -999 -1.657694
2008-02-21 08:10:22 51°13.69 2°55.824 12.72 -999 -999 -1.657694
2008-02-21 08:10:27 51°13.691 2°55.817 12.6991 -999 -999 -1.657694
2008-02-21 08:10:32 51°13.692 2°55.81 12.7036 -999 -999 -1.657694
2008-02-21 08:10:37 51°13.694 2°55.804 12.7004 -999 -999 -1.657694
2008-02-21 08:10:42 51°13.695 2°55.797 12.7023 -999 -999 -1.657694
2008-02-21 08:10:46 51°13.696 2°55.792 12.7046 -999 -999 -1.657694
2008-02-21 08:10:51 51°13.697 2°55.786 12.7194 -999 -999 -1.657694
2008-02-21 08:10:56 51°13.698 2°55.78 12.7218 -999 -999 -1.657694
2008-02-21 08:11:02 51°13.699 2°55.776 12.7756 -999 -999 -1.657694
2008-02-21 08:11:07 51°13.7 2°55.773 12.8062 -999 -999 -1.657694
2008-02-21 08:11:12 51°13.7 2°55.772 12.8318 -999 -999 -1.657694
2008-02-21 08:11:17 51°13.701 2°55.772 12.8108 -999 -999 -1.657694
2008-02-21 08:11:22 51°13.701 2°55.773 12.815 -999 -999 -1.657694
2008-02-21 08:11:27 51°13.702 2°55.775 12.728 -999 -999 -1.657694
2008-02-21 08:11:32 51°13.702 2°55.776 12.547 -999 -999 -1.657694
2008-02-21 08:11:37 51°13.703 2°55.777 12.6233 -999 -999 -1.657694
2008-02-21 08:11:41 51°13.703 2°55.778 12.6358 -999 -999 -1.657694
2008-02-21 08:11:46 51°13.704 2°55.778 12.6228 -999 -999 -1.657694
2008-02-21 08:11:51 51°13.704 2°55.777 12.5814 -999 -999 -1.657694
2008-02-21 08:11:56 51°13.704 2°55.775 12.6195 -999 -999 -1.657694
2008-02-21 08:12:01 51°13.704 2°55.773 12.6842 -999 -999 -1.657694
2008-02-21 08:12:05 51°13.704 2°55.771 12.7288 -999 -999 -1.657694
2008-02-21 08:12:10 51°13.704 2°55.769 12.7174 -999 -999 -1.657694
2008-02-21 08:12:16 51°13.703 2°55.766 12.6818 -999 -999 -1.657694
2008-02-21 08:12:21 51°13.703 2°55.763 12.686 -999 -999 -1.657694
2008-02-21 08:12:26 51°13.702 2°55.759 12.6813 -999 -999 -1.657694
2008-02-21 08:12:32 51°13.701 2°55.756 12.7321 -999 -999 -1.657694
2008-02-21 08:12:37 51°13.701 2°55.753 12.7254 -999 -999 -1.657694
2008-02-21 08:12:42 51°13.701 2°55.75 12.7404 -999 -999 -1.657694
2008-02-21 08:12:47 51°13.701 2°55.748 12.7625 -999 -999 -1.657694
2008-02-21 08:12:52 51°13.701 2°55.747 12.7503 -999 -999 -1.657694
2008-02-21 08:12:57 51°13.701 2°55.747 12.7452 -999 -999 -1.657694
2008-02-21 08:13:02 51°13.702 2°55.746 12.7451 -999 -999 -1.657694
2008-02-21 08:13:07 51°13.703 2°55.747 12.745 -999 -999 -1.657694
2008-02-21 08:13:12 51°13.704 2°55.747 12.748 -999 -999 -1.657694
2008-02-21 08:13:17 51°13.706 2°55.748 12.8272 -999 -999 -1.657694
2008-02-21 08:13:22 51°13.708 2°55.75 12.7359 -999 -999 -1.657694
2008-02-21 08:13:27 51°13.71 2°55.75 12.6257 -999 -999 -1.657694
2008-02-21 08:13:32 51°13.711 2°55.751 12.5249 -999 -999 -1.657694
2008-02-21 08:13:37 51°13.712 2°55.751 12.6416 -999 -999 -1.657694
2008-02-21 08:13:42 51°13.713 2°55.751 12.5268 -999 -999 -1.657694
2008-02-21 08:13:47 51°13.712 2°55.751 12.4103 -999 -999 -1.657694
2008-02-21 08:13:52 51°13.71 2°55.75 12.6359 -999 -999 -1.657694
2008-02-21 08:13:57 51°13.709 2°55.749 12.7047 -999 -999 -1.657694
2008-02-21 08:14:02 51°13.707 2°55.749 12.7161 -999 -999 -1.657694
2008-02-21 08:14:07 51°13.705 2°55.748 12.7408 -999 -999 -1.657694
2008-02-21 08:14:12 51°13.704 2°55.747 12.7459 -999 -999 -1.657694
2008-02-21 08:14:17 51°13.704 2°55.747 12.7775 -999 -999 -1.657694
2008-02-21 08:14:22 51°13.704 2°55.746 12.8341 -999 -999 -1.657694
2008-02-21 08:14:27 51°13.706 2°55.745 12.8484 -999 -999 -1.657694
2008-02-21 08:14:32 51°13.708 2°55.743 12.8754 -999 -999 -1.657694
2008-02-21 08:14:37 51°13.712 2°55.74 12.8624 -999 -999 -1.657694
2008-02-21 08:14:42 51°13.717 2°55.735 12.7489 -999 -999 -1.657694
2008-02-21 08:14:47 51°13.723 2°55.73 12.7647 -999 -999 -1.657694
2008-02-21 08:14:52 51°13.729 2°55.724 12.6515 -999 -999 -1.657694
2008-02-21 08:14:57 51°13.737 2°55.717 12.5865 -999 -999 -1.657694
2008-02-21 08:15:02 51°13.745 2°55.71 12.4707 -999 -999 -1.657694
2008-02-21 08:15:06 51°13.752 2°55.704 12.4104 -999 -999 -1.657694
2008-02-21 08:15:11 51°13.761 2°55.696 12.4234 -999 -999 -1.657694
2008-02-21 08:15:16 51°13.77 2°55.688 12.4307 -999 -999 -1.657694
2008-02-21 08:15:21 51°13.78 2°55.68 12.4334 -999 -999 -1.657694
2008-02-21 08:15:26 51°13.789 2°55.672 12.4494 -999 -999 -1.657694
2008-02-21 08:15:31 51°13.799 2°55.665 12.4778 -999 -999 -1.657694
2008-02-21 08:15:35 51°13.807 2°55.659 12.4882 -999 -999 -1.657694
2008-02-21 08:15:40 51°13.816 2°55.651 12.5237 -999 -999 -1.657694
2008-02-21 08:15:45 51°13.827 2°55.644 12.5122 -999 -999 -1.657694
2008-02-21 08:15:50 51°13.836 2°55.636 12.5209 -999 -999 -1.657694
2008-02-21 08:15:55 51°13.846 2°55.629 12.5183 -999 -999 -1.657694
2008-02-21 08:16:00 51°13.856 2°55.622 12.5236 -999 -999 -1.657694
2008-02-21 08:16:05 51°13.865 2°55.615 12.5312 -999 -999 -1.657694
2008-02-21 08:16:09 51°13.872 2°55.609 12.5455 -999 -999 -1.657694
2008-02-21 08:16:14 51°13.881 2°55.602 12.575 -999 -999 -1.657694
2008-02-21 08:16:19 51°13.89 2°55.596 12.6027 -999 -999 -1.657694
2008-02-21 08:16:24 51°13.899 2°55.589 12.6306 -999 -999 -1.657694
2008-02-21 08:16:29 51°13.907 2°55.583 12.6431 -999 -999 -1.657694
2008-02-21 08:16:34 51°13.915 2°55.576 12.6481 -999 -999 -1.657694
2008-02-21 08:16:38 51°13.922 2°55.571 12.6543 -999 -999 -1.657694
2008-02-21 08:16:43 51°13.93 2°55.565 12.6575 -999 -999 -1.657694
2008-02-21 08:16:49 51°13.939 2°55.557 12.6682 -999 -999 -1.657694
2008-02-21 08:16:53 51°13.946 2°55.552 12.6653 -999 -999 -1.657694
2008-02-21 08:16:58 51°13.954 2°55.546 12.6668 -999 -999 -1.657694
2008-02-21 08:17:03 51°13.962 2°55.54 12.6645 -999 -999 -1.657694
2008-02-21 08:17:08 51°13.97 2°55.534 12.6638 -999 -999 -1.657694
2008-02-21 08:17:14 51°13.979 2°55.526 12.655 -999 -999 -1.657694
2008-02-21 08:17:18 51°13.986 2°55.522 12.6535 -999 -999 -1.657694
2008-02-21 08:17:23 51°13.993 2°55.516 12.6502 -999 -999 -1.657694
2008-02-21 08:17:28 51°14.001 2°55.51 12.648 -999 -999 -1.657694
2008-02-21 08:17:33 51°14.008 2°55.505 12.6506 -999 -999 -1.657694
2008-02-21 08:17:39 51°14.017 2°55.499 12.6658 -999 -999 -1.657694
2008-02-21 08:17:44 51°14.025 2°55.494 12.6705 -999 -999 -1.657694
2008-02-21 08:17:49 51°14.031 2°55.489 12.7402 -999 -999 -1.657694
2008-02-21 08:17:54 51°14.038 2°55.484 12.7616 -999 -999 -1.657694
2008-02-21 08:18:00 51°14.046 2°55.478 12.7565 -999 -999 -1.657694
2008-02-21 08:18:06 51°14.054 2°55.471 12.7227 -999 -999 -1.657694
2008-02-21 08:18:12 51°14.062 2°55.465 12.741 -999 -999 -1.657694
2008-02-21 08:18:17 51°14.069 2°55.459 12.7603 -999 -999 -1.657694
2008-02-21 08:18:22 51°14.076 2°55.454 12.7737 -999 -999 -1.657694
2008-02-21 08:18:27 51°14.084 2°55.447 12.812 -999 -999 -1.657694
2008-02-21 08:18:32 51°14.092 2°55.441 12.7785 -999 -999 -1.657694
2008-02-21 08:18:37 51°14.101 2°55.434 12.7716 -999 -999 -1.657694
2008-02-21 08:18:42 51°14.11 2°55.427 12.7621 -999 -999 -1.657694
2008-02-21 08:18:47 51°14.12 2°55.419 12.7328 -999 -999 -1.657694
2008-02-21 08:18:52 51°14.13 2°55.411 12.7267 -999 -999 -1.657694
2008-02-21 08:18:57 51°14.14 2°55.403 12.6808 -999 -999 -1.657694
2008-02-21 08:19:02 51°14.151 2°55.394 12.6579 -999 -999 -1.657694
2008-02-21 08:19:07 51°14.162 2°55.384 12.7586 -999 -999 -1.657694
2008-02-21 08:19:12 51°14.173 2°55.373 12.7512 -999 -999 -1.657694
2008-02-21 08:19:17 51°14.184 2°55.361 12.6226 -999 -999 -1.657694
2008-02-21 08:19:22 51°14.195 2°55.349 12.6748 -999 -999 -1.657694
2008-02-21 08:19:27 51°14.206 2°55.336 12.711 -999 -999 -1.657694
2008-02-21 08:19:32 51°14.217 2°55.322 12.6145 -999 -999 -1.657694
2008-02-21 08:19:37 51°14.229 2°55.307 12.6735 -999 -999 -1.657694
2008-02-21 08:19:42 51°14.239 2°55.292 12.7178 -999 -999 -1.657694
2008-02-21 08:19:47 51°14.25 2°55.276 12.7127 -999 -999 -1.657694
2008-02-21 08:19:52 51°14.26 2°55.26 12.5766 -999 -999 -1.657694
2008-02-21 08:19:57 51°14.27 2°55.243 12.569 -999 -999 -1.657694
2008-02-21 08:20:02 51°14.28 2°55.226 12.6891 -999 -999 -1.657694
2008-02-21 08:20:06 51°14.288 2°55.213 12.6933 -999 -999 -1.657694
2008-02-21 08:20:11 51°14.298 2°55.195 12.6571 -999 -999 -1.657694
2008-02-21 08:20:16 51°14.307 2°55.177 12.681 -999 -999 -1.657694
2008-02-21 08:20:21 51°14.317 2°55.159 12.6914 -999 -999 -1.657694
2008-02-21 08:20:26 51°14.326 2°55.14 12.6476 -999 -999 -1.657694
2008-02-21 08:20:30 51°14.334 2°55.125 12.7487 -999 -999 -1.657694
2008-02-21 08:20:35 51°14.343 2°55.106 12.6868 -999 -999 -1.657694
2008-02-21 08:20:40 51°14.353 2°55.085 12.6894 -999 -999 -1.657694
2008-02-21 08:20:45 51°14.362 2°55.065 12.4776 -999 -999 -1.657694
2008-02-21 08:20:50 51°14.371 2°55.043 12.6653 -999 -999 -1.657694
2008-02-21 08:20:55 51°14.38 2°55.022 12.6645 -999 -999 -1.657694
2008-02-21 08:21:00 51°14.389 2°55 12.7806 -999 -999 -1.657694
2008-02-21 08:21:05 51°14.399 2°54.978 12.7369 -999 -999 -1.657694
2008-02-21 08:21:09 51°14.406 2°54.96 12.6112 -999 -999 -1.657694
2008-02-21 08:21:14 51°14.414 2°54.936 12.495 -999 -999 -1.657694
2008-02-21 08:21:19 51°14.422 2°54.912 12.6469 -999 -999 -1.657694
2008-02-21 08:21:24 51°14.431 2°54.888 12.613 -999 -999 -1.657694
2008-02-21 08:21:29 51°14.439 2°54.864 12.511 -999 -999 -1.657694
2008-02-21 08:21:34 51°14.448 2°54.84 12.6142 -999 -999 -1.657694
2008-02-21 08:21:38 51°14.456 2°54.821 12.651 -999 -999 -1.657694
2008-02-21 08:21:43 51°14.465 2°54.797 12.6413 -999 -999 -1.657694
2008-02-21 08:21:49 51°14.476 2°54.768 12.6615 -999 -999 -1.657694
2008-02-21 08:21:54 51°14.485 2°54.744 12.7455 -999 -999 -1.657694
2008-02-21 08:21:58 51°14.492 2°54.724 12.7751 -999 -999 -1.657694
2008-02-21 08:22:03 51°14.5 2°54.699 12.8516 -999 -999 -1.657694
2008-02-21 08:22:09 51°14.509 2°54.669 12.8608 -999 -999 -1.657694
2008-02-21 08:22:13 51°14.515 2°54.648 12.816 -999 -999 -1.657694
2008-02-21 08:22:18 51°14.52 2°54.621 12.7782 -999 -999 -1.657694
2008-02-21 08:22:24 51°14.526 2°54.589 12.8697 -999 -999 -1.657694
2008-02-21 08:22:29 51°14.531 2°54.562 12.8797 -999 -999 -1.657694
2008-02-21 08:22:33 51°14.533 2°54.54 12.8185 -999 -999 -1.657694
2008-02-21 08:22:38 51°14.535 2°54.512 12.8804 -999 -999 -1.657694
2008-02-21 08:22:44 51°14.535 2°54.479 12.7991 -999 -999 -1.657694
2008-02-21 08:22:49 51°14.534 2°54.451 12.7581 -999 -999 -1.657694
2008-02-21 08:22:53 51°14.532 2°54.429 12.662 -999 -999 -1.657694
2008-02-21 08:22:58 51°14.529 2°54.401 12.6894 -999 -999 -1.657694
2008-02-21 08:23:04 51°14.523 2°54.369 12.6949 -999 -999 -1.657694
2008-02-21 08:23:09 51°14.518 2°54.343 12.7607 -999 -999 -1.623984
2008-02-21 08:23:14 51°14.511 2°54.317 12.6579 -999 -999 -1.657694
2008-02-21 08:23:18 51°14.505 2°54.297 12.5564 -999 -999 -1.657694
2008-02-21 08:23:23 51°14.496 2°54.273 12.5339 -999 -999 -1.657694
2008-02-21 08:23:29 51°14.486 2°54.244 12.4691 -999 -999 -1.657694
2008-02-21 08:23:34 51°14.476 2°54.22 12.5359 -999 -999 -1.657694
2008-02-21 08:23:38 51°14.469 2°54.2 12.4155 -999 -999 -1.657694
2008-02-21 08:23:43 51°14.459 2°54.177 12.5602 -999 -999 -1.657694
2008-02-21 08:23:49 51°14.448 2°54.148 12.4386 -999 -999 -1.657694
2008-02-21 08:23:53 51°14.441 2°54.128 12.4461 -999 -999 -1.657694
2008-02-21 08:23:58 51°14.432 2°54.104 12.4158 -999 -999 -1.657694
2008-02-21 08:24:03 51°14.424 2°54.079 12.5337 -999 -999 -1.657694
2008-02-21 08:24:09 51°14.414 2°54.049 12.387 -999 -999 -1.657694
2008-02-21 08:24:14 51°14.406 2°54.023 12.5333 -999 -999 -1.657694
2008-02-21 08:24:18 51°14.4 2°54.003 12.4056 -999 -999 -1.657694
2008-02-21 08:24:23 51°14.393 2°53.977 12.5072 -999 -999 -1.657694
2008-02-21 08:24:29 51°14.384 2°53.946 12.5377 -999 -999 -1.657694
2008-02-21 08:24:34 51°14.377 2°53.919 12.5108 -999 -999 -1.657694
2008-02-21 08:24:39 51°14.37 2°53.893 12.5661 -999 -999 -1.657694
2008-02-21 08:24:44 51°14.364 2°53.866 12.5296 -999 -999 -1.657694
2008-02-21 08:24:48 51°14.358 2°53.845 12.5376 -999 -999 -1.657694
2008-02-21 08:24:53 51°14.351 2°53.819 12.5085 -999 -999 -1.657694
2008-02-21 08:24:58 51°14.344 2°53.793 12.5143 -999 -999 -1.657694
2008-02-21 08:25:04 51°14.336 2°53.761 12.5381 -999 -999 -1.657694
2008-02-21 08:25:09 51°14.328 2°53.734 12.5678 -999 -999 -1.657694
2008-02-21 08:25:13 51°14.323 2°53.713 12.5963 -999 -999 -1.657694
2008-02-21 08:25:18 51°14.316 2°53.687 12.5473 -999 -999 -1.657694
2008-02-21 08:25:24 51°14.306 2°53.656 12.5697 -999 -999 -1.657694
2008-02-21 08:25:29 51°14.299 2°53.63 12.5495 -999 -999 -1.657694
2008-02-21 08:25:34 51°14.291 2°53.604 12.5624 -999 -999 -1.657694
2008-02-21 08:25:38 51°14.285 2°53.583 12.5573 -999 -999 -1.657694
2008-02-21 08:25:43 51°14.278 2°53.557 12.5401 -999 -999 -1.657694
2008-02-21 08:25:49 51°14.27 2°53.525 12.5656 -999 -999 -1.657694
2008-02-21 08:25:54 51°14.262 2°53.499 12.554 -999 -999 -1.657694
2008-02-21 08:25:58 51°14.257 2°53.477 12.5769 -999 -999 -1.657694
2008-02-21 08:26:04 51°14.249 2°53.445 12.5493 -999 -999 -1.657694
2008-02-21 08:26:09 51°14.243 2°53.418 12.5967 -999 -999 -1.657694
2008-02-21 08:26:14 51°14.236 2°53.391 12.5421 -999 -999 -1.657694
2008-02-21 08:26:18 51°14.231 2°53.37 12.5454 -999 -999 -1.657694
2008-02-21 08:26:23 51°14.225 2°53.343 12.5403 -999 -999 -1.657694
2008-02-21 08:26:28 51°14.218 2°53.316 12.5701 -999 -999 -1.657694
2008-02-21 08:26:34 51°14.21 2°53.284 12.6255 -999 -999 -1.657694
2008-02-21 08:26:38 51°14.205 2°53.262 12.6001 -999 -999 -1.657694
2008-02-21 08:26:43 51°14.197 2°53.236 12.609 -999 -999 -1.657694
2008-02-21 08:26:49 51°14.189 2°53.204 12.4838 -999 -999 -1.657694
2008-02-21 08:26:53 51°14.183 2°53.183 12.5775 -999 -999 -1.657694
2008-02-21 08:26:59 51°14.174 2°53.151 12.5673 -999 -999 -1.657694
2008-02-21 08:27:03 51°14.168 2°53.13 12.5415 -999 -999 -1.657694
2008-02-21 08:27:09 51°14.16 2°53.098 12.606 -999 -999 -1.657694
2008-02-21 08:27:13 51°14.154 2°53.077 12.588 -999 -999 -1.657694
2008-02-21 08:27:18 51°14.147 2°53.051 12.5935 -999 -999 -1.657694
2008-02-21 08:27:24 51°14.138 2°53.019 12.5498 -999 -999 -1.657694
2008-02-21 08:27:28 51°14.133 2°52.998 12.5585 -999 -999 -1.657694
2008-02-21 08:27:33 51°14.125 2°52.971 12.6064 -999 -999 -1.657694
2008-02-21 08:27:38 51°14.119 2°52.944 12.5997 -999 -999 -1.657694
2008-02-21 08:27:44 51°14.111 2°52.912 12.6406 -999 -999 -1.657694
2008-02-21 08:27:49 51°14.104 2°52.885 12.649 -999 -999 -1.657694
2008-02-21 08:27:53 51°14.098 2°52.864 12.5572 -999 -999 -1.657694
2008-02-21 08:27:58 51°14.091 2°52.837 12.651 -999 -999 -1.657694
2008-02-21 08:28:03 51°14.084 2°52.81 12.6245 -999 -999 -1.657694
2008-02-21 08:28:09 51°14.075 2°52.779 12.6112 -999 -999 -1.657694
2008-02-21 08:28:13 51°14.069 2°52.758 12.6226 -999 -999 -1.657694
2008-02-21 08:28:18 51°14.061 2°52.732 12.5071 -999 -999 -1.657694
2008-02-21 08:28:23 51°14.053 2°52.706 12.593 -999 -999 -1.657694
2008-02-21 08:28:29 51°14.044 2°52.674 12.5719 -999 -999 -1.657694
2008-02-21 08:28:33 51°14.038 2°52.653 12.5915 -999 -999 -1.657694
2008-02-21 08:28:38 51°14.03 2°52.627 12.5839 -999 -999 -1.657694
2008-02-21 08:28:44 51°14.021 2°52.596 12.5914 -999 -999 -1.657694
2008-02-21 08:28:49 51°14.013 2°52.57 12.6494 -999 -999 -1.657694
2008-02-21 08:28:54 51°14.005 2°52.544 12.6036 -999 -999 -1.657694
2008-02-21 08:28:58 51°13.998 2°52.524 12.616 -999 -999 -1.657694
2008-02-21 08:29:04 51°13.988 2°52.493 12.6376 -999 -999 -1.657694
2008-02-21 08:29:09 51°13.979 2°52.468 12.5293 -999 -999 -1.657694
2008-02-21 08:29:13 51°13.972 2°52.448 12.6105 -999 -999 -1.657694
2008-02-21 08:29:18 51°13.963 2°52.422 12.6772 -999 -999 -1.657694
2008-02-21 08:29:23 51°13.954 2°52.398 12.7242 -999 -999 -1.657694
2008-02-21 08:29:28 51°13.945 2°52.373 12.7421 -999 -999 -1.657694
2008-02-21 08:29:33 51°13.935 2°52.349 12.6035 -999 -999 -1.657694
2008-02-21 08:29:38 51°13.924 2°52.325 12.6901 -999 -999 -1.657694
2008-02-21 08:29:43 51°13.914 2°52.301 12.5686 -999 -999 -1.657694
2008-02-21 08:29:49 51°13.901 2°52.273 12.6162 -999 -999 -1.657694
2008-02-21 08:29:53 51°13.893 2°52.255 12.4568 -999 -999 -1.657694
2008-02-21 08:29:58 51°13.881 2°52.232 12.5612 -999 -999 -1.657694
2008-02-21 08:30:03 51°13.871 2°52.208 12.5468 -999 -999 -1.657694
2008-02-21 08:30:08 51°13.86 2°52.185 12.5794 -999 -999 -1.657694
2008-02-21 08:30:13 51°13.85 2°52.161 12.5597 -999 -999 -1.657694
2008-02-21 08:30:18 51°13.84 2°52.137 12.6347 -999 -999 -1.657694
2008-02-21 08:30:23 51°13.831 2°52.112 12.5059 -999 -999 -1.657694
2008-02-21 08:30:28 51°13.821 2°52.088 12.6197 -999 -999 -1.657694
2008-02-21 08:30:33 51°13.812 2°52.063 12.6421 -999 -999 -1.657694
2008-02-21 08:30:38 51°13.802 2°52.038 12.6003 -999 -999 -1.623984
2008-02-21 08:30:43 51°13.793 2°52.013 12.5793 -999 -999 -1.657694
2008-02-21 08:30:48 51°13.784 2°51.988 12.631 -999 -999 -1.657694
2008-02-21 08:30:53 51°13.775 2°51.963 12.6251 -999 -999 -1.657694
2008-02-21 08:30:58 51°13.766 2°51.938 12.6098 -999 -999 -1.657694
2008-02-21 08:31:03 51°13.757 2°51.912 12.6495 -999 -999 -1.657694
2008-02-21 08:31:08 51°13.748 2°51.887 12.6355 -999 -999 -1.657694
2008-02-21 08:31:13 51°13.738 2°51.863 12.6422 -999 -999 -1.657694
2008-02-21 08:31:18 51°13.729 2°51.838 12.6487 -999 -999 -1.657694
2008-02-21 08:31:23 51°13.719 2°51.813 12.649 -999 -999 -1.657694
2008-02-21 08:31:28 51°13.71 2°51.789 12.6809 -999 -999 -1.657694
2008-02-21 08:31:33 51°13.7 2°51.764 12.5835 -999 -999 -1.657694
2008-02-21 08:31:38 51°13.69 2°51.74 12.6638 -999 -999 -1.657694
2008-02-21 08:31:43 51°13.681 2°51.715 12.6083 -999 -999 -1.657694
2008-02-21 08:31:48 51°13.671 2°51.69 12.6351 -999 -999 -1.657694
2008-02-21 08:31:53 51°13.662 2°51.666 12.5958 -999 -999 -1.657694
2008-02-21 08:31:58 51°13.652 2°51.641 12.6379 -999 -999 -1.657694
2008-02-21 08:32:03 51°13.643 2°51.616 12.6445 -999 -999 -1.657694
2008-02-21 08:32:08 51°13.634 2°51.591 12.5782 -999 -999 -1.657694
2008-02-21 08:32:13 51°13.625 2°51.566 12.6033 -999 -999 -1.657694
2008-02-21 08:32:18 51°13.616 2°51.541 12.6608 -999 -999 -1.657694
2008-02-21 08:32:23 51°13.607 2°51.516 12.6393 -999 -999 -1.657694
2008-02-21 08:32:28 51°13.598 2°51.49 12.6565 -999 -999 -1.657694
2008-02-21 08:32:33 51°13.59 2°51.465 12.6943 -999 -999 -1.657694
2008-02-21 08:32:38 51°13.581 2°51.44 12.6549 -999 -999 -1.657694
2008-02-21 08:32:43 51°13.572 2°51.415 12.6616 -999 -999 -1.657694
2008-02-21 08:32:48 51°13.563 2°51.39 12.6472 -999 -999 -1.657694
2008-02-21 08:32:53 51°13.553 2°51.366 12.6667 -999 -999 -1.657694
2008-02-21 08:32:58 51°13.544 2°51.341 12.6473 -999 -999 -1.657694
2008-02-21 08:33:03 51°13.535 2°51.316 12.6591 -999 -999 -1.657694
2008-02-21 08:33:08 51°13.526 2°51.291 12.6678 -999 -999 -1.657694
2008-02-21 08:33:13 51°13.517 2°51.266 12.6547 -999 -999 -1.657694
2008-02-21 08:33:18 51°13.507 2°51.241 12.6496 -999 -999 -1.657694
2008-02-21 08:33:23 51°13.498 2°51.217 12.6542 -999 -999 -1.657694
2008-02-21 08:33:28 51°13.489 2°51.192 12.6683 -999 -999 -1.657694
2008-02-21 08:33:33 51°13.48 2°51.167 12.6187 -999 -999 -1.657694
2008-02-21 08:33:38 51°13.471 2°51.142 12.6609 -999 -999 -1.657694
2008-02-21 08:33:43 51°13.462 2°51.117 12.7101 -999 -999 -1.657694
2008-02-21 08:33:48 51°13.453 2°51.092 12.6658 -999 -999 -1.657694
2008-02-21 08:33:53 51°13.443 2°51.067 12.6998 -999 -999 -1.657694
2008-02-21 08:33:58 51°13.435 2°51.042 12.6273 -999 -999 -1.657694
2008-02-21 08:34:03 51°13.425 2°51.017 12.6824 -999 -999 -1.657694
2008-02-21 08:34:08 51°13.416 2°50.993 12.6622 -999 -999 -1.657694
2008-02-21 08:34:13 51°13.407 2°50.968 12.7213 -999 -999 -1.657694
2008-02-21 08:34:18 51°13.398 2°50.943 12.6509 -999 -999 -1.657694
2008-02-21 08:34:23 51°13.389 2°50.918 12.6662 -999 -999 -1.657694
2008-02-21 08:34:28 51°13.38 2°50.893 12.6464 -999 -999 -1.657694
2008-02-21 08:34:33 51°13.371 2°50.868 12.6497 -999 -999 -1.657694
2008-02-21 08:34:38 51°13.361 2°50.843 12.6687 -999 -999 -1.657694
2008-02-21 08:34:43 51°13.352 2°50.818 12.6668 -999 -999 -1.657694
2008-02-21 08:34:48 51°13.343 2°50.793 12.6164 -999 -999 -1.657694
2008-02-21 08:34:53 51°13.334 2°50.768 12.6611 -999 -999 -1.657694
2008-02-21 08:34:58 51°13.325 2°50.743 12.6418 -999 -999 -1.657694
2008-02-21 08:35:03 51°13.316 2°50.718 12.6795 -999 -999 -1.657694
2008-02-21 08:35:08 51°13.307 2°50.693 12.6698 -999 -999 -1.657694
2008-02-21 08:35:13 51°13.298 2°50.668 12.6688 -999 -999 -1.657694
2008-02-21 08:35:18 51°13.288 2°50.643 12.7071 -999 -999 -1.657694
2008-02-21 08:35:23 51°13.28 2°50.618 12.6736 -999 -999 -1.657694
2008-02-21 08:35:28 51°13.27 2°50.592 12.6795 -999 -999 -1.657694
2008-02-21 08:35:33 51°13.261 2°50.567 12.6157 -999 -999 -1.657694
2008-02-21 08:35:38 51°13.252 2°50.542 12.725 -999 -999 -1.657694
2008-02-21 08:35:43 51°13.244 2°50.517 12.6181 -999 -999 -1.657694
2008-02-21 08:35:48 51°13.234 2°50.491 12.6952 -999 -999 -1.657694
2008-02-21 08:35:53 51°13.226 2°50.466 12.6064 -999 -999 -1.657694
2008-02-21 08:35:58 51°13.217 2°50.44 12.669 -999 -999 -1.657694
2008-02-21 08:36:03 51°13.209 2°50.414 12.6283 -999 -999 -1.657694
2008-02-21 08:36:08 51°13.2 2°50.388 12.7041 -999 -999 -1.657694
2008-02-21 08:36:13 51°13.192 2°50.362 12.6983 -999 -999 -1.657694
2008-02-21 08:36:18 51°13.183 2°50.336 12.6924 -999 -999 -1.657694
2008-02-21 08:36:23 51°13.174 2°50.31 12.6855 -999 -999 -1.657694
2008-02-21 08:36:28 51°13.165 2°50.285 12.7018 -999 -999 -1.657694
2008-02-21 08:36:33 51°13.156 2°50.259 12.6459 -999 -999 -1.657694
2008-02-21 08:36:38 51°13.146 2°50.234 12.6431 -999 -999 -1.657694
2008-02-21 08:36:43 51°13.138 2°50.208 12.6746 -999 -999 -1.657694
2008-02-21 08:36:48 51°13.128 2°50.182 12.7007 -999 -999 -1.657694
2008-02-21 08:36:53 51°13.12 2°50.157 12.7075 -999 -999 -1.657694
2008-02-21 08:36:58 51°13.11 2°50.131 12.6759 -999 -999 -1.657694
2008-02-21 08:37:03 51°13.101 2°50.105 12.6565 -999 -999 -1.657694
2008-02-21 08:37:08 51°13.092 2°50.079 12.7042 -999 -999 -1.657694
2008-02-21 08:37:13 51°13.083 2°50.053 12.7017 -999 -999 -1.657694
2008-02-21 08:37:18 51°13.074 2°50.027 12.6541 -999 -999 -1.657694
2008-02-21 08:37:23 51°13.066 2°50.001 12.7131 -999 -999 -1.657694
2008-02-21 08:37:28 51°13.057 2°49.975 12.6649 -999 -999 -1.657694
2008-02-21 08:37:33 51°13.048 2°49.949 12.6729 -999 -999 -1.657694
2008-02-21 08:37:38 51°13.039 2°49.923 12.7035 -999 -999 -1.657694
2008-02-21 08:37:43 51°13.03 2°49.897 12.669 -999 -999 -1.657694
2008-02-21 08:37:48 51°13.022 2°49.87 12.7113 -999 -999 -1.657694
2008-02-21 08:37:53 51°13.013 2°49.844 12.7113 -999 -999 -1.657694
2008-02-21 08:37:58 51°13.004 2°49.818 12.7214 -999 -999 -1.657694
2008-02-21 08:38:03 51°12.995 2°49.792 12.6794 -999 -999 -1.657694
2008-02-21 08:38:08 51°12.986 2°49.766 12.7422 -999 -999 -1.657694
2008-02-21 08:38:13 51°12.977 2°49.74 12.6381 -999 -999 -1.657694
2008-02-21 08:38:18 51°12.968 2°49.715 12.644 -999 -999 -1.657694
2008-02-21 08:38:23 51°12.959 2°49.689 12.7168 -999 -999 -1.657694
2008-02-21 08:38:28 51°12.95 2°49.663 12.7534 -999 -999 -1.657694
2008-02-21 08:38:33 51°12.941 2°49.637 12.6822 -999 -999 -1.657694
2008-02-21 08:38:38 51°12.932 2°49.611 12.6592 -999 -999 -1.657694
2008-02-21 08:38:43 51°12.922 2°49.585 12.688 -999 -999 -1.657694
2008-02-21 08:38:48 51°12.913 2°49.559 12.7292 -999 -999 -1.657694
2008-02-21 08:38:53 51°12.904 2°49.533 12.7308 -999 -999 -1.657694
2008-02-21 08:38:58 51°12.896 2°49.507 12.7086 -999 -999 -1.657694
2008-02-21 08:39:03 51°12.887 2°49.48 12.7307 -999 -999 -1.657694
2008-02-21 08:39:08 51°12.878 2°49.454 12.7225 -999 -999 -1.657694
2008-02-21 08:39:13 51°12.869 2°49.428 12.6552 -999 -999 -1.657694
2008-02-21 08:39:18 51°12.861 2°49.401 12.7509 -999 -999 -1.657694
2008-02-21 08:39:23 51°12.852 2°49.375 12.7155 -999 -999 -1.657694
2008-02-21 08:39:28 51°12.843 2°49.348 12.737 -999 -999 -1.657694
2008-02-21 08:39:33 51°12.835 2°49.322 12.7024 -999 -999 -1.657694
2008-02-21 08:39:38 51°12.826 2°49.296 12.7068 -999 -999 -1.657694
2008-02-21 08:39:43 51°12.817 2°49.27 12.6953 -999 -999 -1.657694
2008-02-21 08:39:48 51°12.808 2°49.244 12.7009 -999 -999 -1.657694
2008-02-21 08:39:53 51°12.798 2°49.218 12.7094 -999 -999 -1.657694
2008-02-21 08:39:58 51°12.789 2°49.191 12.7246 -999 -999 -1.657694
2008-02-21 08:40:03 51°12.78 2°49.166 12.7401 -999 -999 -1.657694
2008-02-21 08:40:08 51°12.771 2°49.139 12.7479 -999 -999 -1.657694
2008-02-21 08:40:13 51°12.762 2°49.113 12.7007 -999 -999 -1.657694
2008-02-21 08:40:18 51°12.753 2°49.087 12.7104 -999 -999 -1.657694
2008-02-21 08:40:23 51°12.744 2°49.061 12.6296 -999 -999 -1.657694
2008-02-21 08:40:28 51°12.735 2°49.035 12.7195 -999 -999 -1.657694
2008-02-21 08:40:33 51°12.726 2°49.009 12.674 -999 -999 -1.657694
2008-02-21 08:40:38 51°12.717 2°48.982 12.6523 -999 -999 -1.657694
2008-02-21 08:40:43 51°12.708 2°48.956 12.7114 -999 -999 -1.657694
2008-02-21 08:40:48 51°12.7 2°48.929 12.7537 -999 -999 -1.657694
2008-02-21 08:40:53 51°12.691 2°48.903 12.7166 -999 -999 -1.657694
2008-02-21 08:40:58 51°12.682 2°48.877 12.6906 -999 -999 -1.657694
2008-02-21 08:41:03 51°12.673 2°48.85 12.7299 -999 -999 -1.657694
2008-02-21 08:41:08 51°12.665 2°48.824 12.7112 -999 -999 -1.657694
2008-02-21 08:41:13 51°12.656 2°48.797 12.7422 -999 -999 -1.657694
2008-02-21 08:41:18 51°12.647 2°48.771 12.7455 -999 -999 -1.657694
2008-02-21 08:41:23 51°12.638 2°48.744 12.6946 -999 -999 -1.657694
2008-02-21 08:41:28 51°12.629 2°48.718 12.7235 -999 -999 -1.657694
2008-02-21 08:41:33 51°12.621 2°48.691 12.7237 -999 -999 -1.657694
2008-02-21 08:41:38 51°12.612 2°48.665 12.6964 -999 -999 -1.657694
2008-02-21 08:41:43 51°12.603 2°48.638 12.7808 -999 -999 -1.657694
2008-02-21 08:41:48 51°12.594 2°48.612 12.7034 -999 -999 -1.657694
2008-02-21 08:41:53 51°12.585 2°48.585 12.7686 -999 -999 -1.657694
2008-02-21 08:41:58 51°12.576 2°48.559 12.7258 -999 -999 -1.657694
2008-02-21 08:42:03 51°12.567 2°48.533 12.7321 -999 -999 -1.657694
2008-02-21 08:42:08 51°12.558 2°48.506 12.7487 -999 -999 -1.657694
2008-02-21 08:42:13 51°12.549 2°48.48 12.7113 -999 -999 -1.657694
2008-02-21 08:42:18 51°12.54 2°48.454 12.7653 -999 -999 -1.657694
2008-02-21 08:42:23 51°12.531 2°48.428 12.7609 -999 -999 -1.657694
2008-02-21 08:42:28 51°12.522 2°48.402 12.7051 -999 -999 -1.657694
2008-02-21 08:42:33 51°12.513 2°48.376 12.7632 -999 -999 -1.657694
2008-02-21 08:42:38 51°12.504 2°48.35 12.7248 -999 -999 -1.657694
2008-02-21 08:42:43 51°12.495 2°48.323 12.7059 -999 -999 -1.657694
2008-02-21 08:42:48 51°12.486 2°48.297 12.6668 -999 -999 -1.657694
2008-02-21 08:42:53 51°12.477 2°48.27 12.7589 -999 -999 -1.657694
2008-02-21 08:42:58 51°12.468 2°48.244 12.7557 -999 -999 -1.657694
2008-02-21 08:43:03 51°12.459 2°48.218 12.7535 -999 -999 -1.657694
2008-02-21 08:43:08 51°12.45 2°48.191 12.7315 -999 -999 -1.657694
2008-02-21 08:43:13 51°12.441 2°48.165 12.7553 -999 -999 -1.657694
2008-02-21 08:43:18 51°12.432 2°48.139 12.744 -999 -999 -1.657694
2008-02-21 08:43:23 51°12.423 2°48.113 12.778 -999 -999 -1.657694
2008-02-21 08:43:28 51°12.414 2°48.087 12.7662 -999 -999 -1.657694
2008-02-21 08:43:33 51°12.405 2°48.06 12.6989 -999 -999 -1.657694
2008-02-21 08:43:38 51°12.395 2°48.035 12.7898 -999 -999 -1.657694
2008-02-21 08:43:43 51°12.386 2°48.008 12.7668 -999 -999 -1.657694
2008-02-21 08:43:48 51°12.377 2°47.982 12.6973 -999 -999 -1.657694
2008-02-21 08:43:53 51°12.368 2°47.956 12.7639 -999 -999 -1.657694
2008-02-21 08:43:58 51°12.359 2°47.93 12.7361 -999 -999 -1.657694
2008-02-21 08:44:03 51°12.35 2°47.904 12.7617 -999 -999 -1.657694
2008-02-21 08:44:08 51°12.341 2°47.877 12.7419 -999 -999 -1.657694
2008-02-21 08:44:13 51°12.332 2°47.852 12.7305 -999 -999 -1.657694
2008-02-21 08:44:18 51°12.322 2°47.825 12.754 -999 -999 -1.657694
2008-02-21 08:44:23 51°12.313 2°47.799 12.7911 -999 -999 -1.657694
2008-02-21 08:44:28 51°12.305 2°47.773 12.7729 -999 -999 -1.657694
2008-02-21 08:44:33 51°12.295 2°47.746 12.7509 -999 -999 -1.657694
2008-02-21 08:44:38 51°12.286 2°47.72 12.7441 -999 -999 -1.657694
2008-02-21 08:44:43 51°12.277 2°47.694 12.7646 -999 -999 -1.657694
2008-02-21 08:44:48 51°12.268 2°47.668 12.7371 -999 -999 -1.657694
2008-02-21 08:44:53 51°12.259 2°47.642 12.7542 -999 -999 -1.657694
2008-02-21 08:44:58 51°12.25 2°47.615 12.73 -999 -999 -1.657694
2008-02-21 08:45:03 51°12.24 2°47.59 12.7714 -999 -999 -1.657694
2008-02-21 08:45:08 51°12.231 2°47.563 12.7569 -999 -999 -1.657694
2008-02-21 08:45:13 51°12.222 2°47.537 12.757 -999 -999 -1.657694
2008-02-21 08:45:18 51°12.213 2°47.511 12.7463 -999 -999 -1.657694
2008-02-21 08:45:23 51°12.204 2°47.484 12.7773 -999 -999 -1.657694
2008-02-21 08:45:28 51°12.196 2°47.458 12.7837 -999 -999 -1.657694
2008-02-21 08:45:33 51°12.187 2°47.431 12.8062 -999 -999 -1.657694
2008-02-21 08:45:38 51°12.178 2°47.405 12.7765 -999 -999 -1.657694
2008-02-21 08:45:43 51°12.169 2°47.378 12.7561 -999 -999 -1.657694
2008-02-21 08:45:48 51°12.16 2°47.352 12.7826 -999 -999 -1.657694
2008-02-21 08:45:53 51°12.152 2°47.325 12.795 -999 -999 -1.657694
2008-02-21 08:45:58 51°12.143 2°47.298 12.7834 -999 -999 -1.657694
2008-02-21 08:46:03 51°12.134 2°47.272 12.7686 -999 -999 -1.657694
2008-02-21 08:46:08 51°12.125 2°47.245 12.7858 -999 -999 -1.657694
2008-02-21 08:46:13 51°12.116 2°47.219 12.7616 -999 -999 -1.657694
2008-02-21 08:46:18 51°12.107 2°47.192 12.7178 -999 -999 -1.657694
2008-02-21 08:46:23 51°12.098 2°47.166 12.6699 -999 -999 -1.657694
2008-02-21 08:46:28 51°12.09 2°47.139 12.746 -999 -999 -1.657694
2008-02-21 08:46:33 51°12.082 2°47.112 10.926 -999 -999 -1.657694
2008-02-21 08:46:38 51°12.074 2°47.085 8.5986 -999 -999 -1.489147
2008-02-21 08:46:43 51°12.067 2°47.057 7.5706 -999 -999 -1.590275
2008-02-21 08:46:48 51°12.06 2°47.029 7.1551 -999 -999 2.6234
2008-02-21 08:46:53 51°12.054 2°47.001 6.8098 -999 -999 2.65711
2008-02-21 08:46:58 51°12.048 2°46.973 6.6201 -999 -999 1.645828
2008-02-21 08:47:03 51°12.042 2°46.944 6.3989 -999 -999 1.645828
2008-02-21 08:47:08 51°12.036 2°46.915 6.3105 -999 -999 2.151469
2008-02-21 08:47:13 51°12.03 2°46.887 6.2452 -999 -999 3.668392
2008-02-21 08:47:18 51°12.024 2°46.858 6.1816 -999 -999 4.140324
2008-02-21 08:47:23 51°12.019 2°46.829 6.1386 -999 -999 4.241452
2008-02-21 08:47:28 51°12.014 2°46.8 6.0802 -999 -999 4.34258
2008-02-21 08:47:33 51°12.009 2°46.771 6.0331 -999 -999 4.34258
2008-02-21 08:47:38 51°12.003 2°46.742 6.0207 -999 -999 4.511127
2008-02-21 08:47:43 51°11.999 2°46.713 6.0086 -999 -999 4.544836
2008-02-21 08:47:48 51°11.994 2°46.683 5.9747 -999 -999 4.578546
2008-02-21 08:47:53 51°11.988 2°46.655 5.9902 -999 -999 4.612255
2008-02-21 08:47:58 51°11.983 2°46.625 5.9468 -999 -999 4.645965
2008-02-21 08:48:03 51°11.978 2°46.596 5.9372 -999 -999 4.645965
2008-02-21 08:48:08 51°11.973 2°46.567 5.9383 -999 -999 4.780802
2008-02-21 08:48:13 51°11.968 2°46.538 5.9016 -999 -999 4.713383
2008-02-21 08:48:18 51°11.962 2°46.509 5.9208 -999 -999 4.780802
2008-02-21 08:48:23 51°11.957 2°46.48 5.8991 -999 -999 4.679674
2008-02-21 08:48:28 51°11.951 2°46.451 5.9072 -999 -999 4.780802
2008-02-21 08:48:33 51°11.946 2°46.422 5.8923 -999 -999 4.780802
2008-02-21 08:48:38 51°11.94 2°46.393 5.8802 -999 -999 4.780802
2008-02-21 08:48:43 51°11.935 2°46.364 5.8896 -999 -999 4.814512
2008-02-21 08:48:49 51°11.928 2°46.329 5.892 -999 -999 4.747093
2008-02-21 08:48:53 51°11.924 2°46.306 5.8935 -999 -999 4.848221
2008-02-21 08:48:58 51°11.918 2°46.278 5.8819 -999 -999 4.814512
2008-02-21 08:49:03 51°11.913 2°46.248 5.8691 -999 -999 4.814512
2008-02-21 08:49:08 51°11.907 2°46.22 5.8682 -999 -999 4.814512
2008-02-21 08:49:13 51°11.903 2°46.19 5.8659 -999 -999 4.780802
2008-02-21 08:49:18 51°11.898 2°46.161 5.8694 -999 -999 4.814512
2008-02-21 08:49:23 51°11.894 2°46.132 5.8604 -999 -999 4.814512
2008-02-21 08:49:28 51°11.889 2°46.103 5.8427 -999 -999 4.747093
2008-02-21 08:49:33 51°11.885 2°46.073 5.8488 -999 -999 4.747093
2008-02-21 08:49:38 51°11.881 2°46.044 5.8469 -999 -999 4.88193
2008-02-21 08:49:43 51°11.877 2°46.014 5.8554 -999 -999 4.814512
2008-02-21 08:49:48 51°11.873 2°45.985 5.8588 -999 -999 4.91564
2008-02-21 08:49:53 51°11.869 2°45.955 5.8563 -999 -999 4.91564
2008-02-21 08:49:58 51°11.865 2°45.926 5.8493 -999 -999 4.983059
2008-02-21 08:50:03 51°11.861 2°45.896 5.8442 -999 -999 4.983059
2008-02-21 08:50:08 51°11.856 2°45.867 5.8432 -999 -999 5.151606
2008-02-21 08:50:13 51°11.852 2°45.838 5.8474 -999 -999 5.016768
2008-02-21 08:50:18 51°11.847 2°45.808 5.8409 -999 -999 5.050477
2008-02-21 08:50:23 51°11.843 2°45.779 5.846 -999 -999 5.050477
2008-02-21 08:50:28 51°11.838 2°45.75 5.8448 -999 -999 5.016768
2008-02-21 08:50:33 51°11.834 2°45.721 5.8499 -999 -999 5.016768
2008-02-21 08:50:38 51°11.829 2°45.692 5.8562 -999 -999 5.185315
2008-02-21 08:50:43 51°11.824 2°45.662 5.8372 -999 -999 5.084187
2008-02-21 08:50:48 51°11.82 2°45.633 5.8432 -999 -999 5.084187
2008-02-21 08:50:53 51°11.815 2°45.604 5.8472 -999 -999 5.117896
2008-02-21 08:50:58 51°11.81 2°45.575 5.8462 -999 -999 5.185315
2008-02-21 08:51:03 51°11.806 2°45.546 5.8423 -999 -999 5.185315
2008-02-21 08:51:08 51°11.801 2°45.517 5.853 -999 -999 5.252734
2008-02-21 08:51:13 51°11.797 2°45.488 5.8399 -999 -999 5.151606
2008-02-21 08:51:18 51°11.793 2°45.459 5.8489 -999 -999 5.252734
2008-02-21 08:51:23 51°11.789 2°45.429 5.8555 -999 -999 5.252734
2008-02-21 08:51:28 51°11.784 2°45.4 5.8543 -999 -999 5.252734
2008-02-21 08:51:33 51°11.78 2°45.371 5.8526 -999 -999 5.252734
2008-02-21 08:51:38 51°11.776 2°45.341 5.8633 -999 -999 5.219024
2008-02-21 08:51:43 51°11.772 2°45.312 5.8667 -999 -999 5.320153
2008-02-21 08:51:48 51°11.768 2°45.283 5.8538 -999 -999 5.286443
2008-02-21 08:51:53 51°11.764 2°45.254 5.8619 -999 -999 5.387571
2008-02-21 08:51:58 51°11.759 2°45.225 5.8637 -999 -999 5.45499
2008-02-21 08:52:03 51°11.755 2°45.195 5.8587 -999 -999 5.45499
2008-02-21 08:52:08 51°11.751 2°45.166 5.8599 -999 -999 5.387571
2008-02-21 08:52:13 51°11.746 2°45.137 5.8652 -999 -999 5.522409
2008-02-21 08:52:18 51°11.742 2°45.108 5.8748 -999 -999 5.4887
2008-02-21 08:52:23 51°11.737 2°45.08 5.8698 -999 -999 5.4887
2008-02-21 08:52:28 51°11.733 2°45.051 5.8656 -999 -999 5.556118
2008-02-21 08:52:33 51°11.728 2°45.022 5.8684 -999 -999 5.556118
2008-02-21 08:52:38 51°11.724 2°44.993 5.8736 -999 -999 5.556118
2008-02-21 08:52:43 51°11.719 2°44.964 5.88 -999 -999 5.589828
2008-02-21 08:52:48 51°11.715 2°44.936 5.8777 -999 -999 5.623537
2008-02-21 08:52:53 51°11.71 2°44.907 5.8815 -999 -999 5.623537
2008-02-21 08:52:58 51°11.706 2°44.878 5.882 -999 -999 5.589828
2008-02-21 08:53:03 51°11.702 2°44.849 5.8768 -999 -999 5.589828
2008-02-21 08:53:08 51°11.698 2°44.82 5.8829 -999 -999 5.556118
2008-02-21 08:53:13 51°11.693 2°44.791 5.8904 -999 -999 5.589828
2008-02-21 08:53:18 51°11.689 2°44.762 5.8878 -999 -999 5.623537
2008-02-21 08:53:23 51°11.685 2°44.733 5.8911 -999 -999 5.657247
2008-02-21 08:53:28 51°11.681 2°44.704 5.8994 -999 -999 5.825794
2008-02-21 08:53:33 51°11.677 2°44.676 5.8913 -999 -999 5.825794
2008-02-21 08:53:38 51°11.672 2°44.647 5.8972 -999 -999 5.926922
2008-02-21 08:53:43 51°11.668 2°44.618 5.9068 -999 -999 5.825794
2008-02-21 08:53:48 51°11.663 2°44.589 5.907 -999 -999 5.859503
2008-02-21 08:53:53 51°11.659 2°44.561 5.9067 -999 -999 5.792084
2008-02-21 08:53:58 51°11.655 2°44.532 5.907 -999 -999 5.960631
2008-02-21 08:54:03 51°11.65 2°44.504 5.9115 -999 -999 5.960631
2008-02-21 08:54:08 51°11.646 2°44.475 5.9165 -999 -999 5.926922
2008-02-21 08:54:13 51°11.641 2°44.446 5.9143 -999 -999 5.994341
2008-02-21 08:54:18 51°11.637 2°44.417 5.9178 -999 -999 6.02805
2008-02-21 08:54:23 51°11.632 2°44.389 5.9247 -999 -999 6.061759
2008-02-21 08:54:28 51°11.628 2°44.36 5.9329 -999 -999 6.061759
2008-02-21 08:54:33 51°11.623 2°44.332 5.9341 -999 -999 6.061759
2008-02-21 08:54:38 51°11.619 2°44.303 5.936 -999 -999 6.129178
2008-02-21 08:54:43 51°11.615 2°44.274 5.9392 -999 -999 6.196597
2008-02-21 08:54:48 51°11.611 2°44.246 5.9495 -999 -999 6.162888
2008-02-21 08:54:53 51°11.607 2°44.217 5.947 -999 -999 6.162888
2008-02-21 08:54:58 51°11.603 2°44.188 5.9588 -999 -999 6.162888
2008-02-21 08:55:03 51°11.599 2°44.159 5.9571 -999 -999 6.162888
2008-02-21 08:55:08 51°11.595 2°44.131 5.9588 -999 -999 6.196597
2008-02-21 08:55:13 51°11.591 2°44.102 5.9622 -999 -999 6.398853
2008-02-21 08:55:18 51°11.587 2°44.074 5.9653 -999 -999 6.365144
2008-02-21 08:55:23 51°11.582 2°44.045 5.9622 -999 -999 6.466272
2008-02-21 08:55:28 51°11.578 2°44.017 5.9726 -999 -999 6.499982
2008-02-21 08:55:33 51°11.573 2°43.988 5.9771 -999 -999 6.499982
2008-02-21 08:55:38 51°11.569 2°43.96 5.9803 -999 -999 6.499982
2008-02-21 08:55:43 51°11.565 2°43.931 5.986 -999 -999 6.533691
2008-02-21 08:55:48 51°11.561 2°43.902 5.9827 -999 -999 6.5674
2008-02-21 08:55:53 51°11.558 2°43.874 5.9866 -999 -999 6.5674
2008-02-21 08:55:58 51°11.555 2°43.845 5.989 -999 -999 6.668529
2008-02-21 08:56:03 51°11.552 2°43.816 5.9945 -999 -999 6.668529
2008-02-21 08:56:08 51°11.549 2°43.787 6.0014 -999 -999 6.5674
2008-02-21 08:56:13 51°11.546 2°43.758 5.9975 -999 -999 6.702238
2008-02-21 08:56:18 51°11.543 2°43.73 6.0076 -999 -999 6.668529
2008-02-21 08:56:23 51°11.54 2°43.701 6.0061 -999 -999 6.735947
2008-02-21 08:56:28 51°11.537 2°43.672 6.0135 -999 -999 6.803366
2008-02-21 08:56:33 51°11.534 2°43.643 6.0177 -999 -999 6.803366
2008-02-21 08:56:38 51°11.53 2°43.615 6.0262 -999 -999 6.837076
2008-02-21 08:56:43 51°11.526 2°43.587 6.0362 -999 -999 6.870785
2008-02-21 08:56:48 51°11.523 2°43.558 6.0372 -999 -999 6.870785
2008-02-21 08:56:53 51°11.52 2°43.53 6.044 -999 -999 7.073042
2008-02-21 08:56:58 51°11.516 2°43.502 6.0499 -999 -999 7.039332
2008-02-21 08:57:03 51°11.513 2°43.473 6.0565 -999 -999 7.039332
2008-02-21 08:57:08 51°11.509 2°43.445 6.0656 -999 -999 7.106751
2008-02-21 08:57:13 51°11.505 2°43.417 6.0769 -999 -999 7.207879
2008-02-21 08:57:18 51°11.502 2°43.389 6.0826 -999 -999 7.275298
2008-02-21 08:57:23 51°11.498 2°43.361 6.0912 -999 -999 7.309007
2008-02-21 08:57:28 51°11.493 2°43.334 6.1027 -999 -999 7.443845
2008-02-21 08:57:33 51°11.488 2°43.307 6.1105 -999 -999 7.443845
2008-02-21 08:57:38 51°11.483 2°43.28 6.115 -999 -999 7.578683
2008-02-21 08:57:43 51°11.476 2°43.253 6.1234 -999 -999 7.578683
2008-02-21 08:57:48 51°11.47 2°43.227 6.1313 -999 -999 7.74723
2008-02-21 08:57:53 51°11.463 2°43.201 6.1411 -999 -999 7.74723
2008-02-21 08:57:58 51°11.456 2°43.175 6.1496 -999 -999 7.915777
2008-02-21 08:58:03 51°11.448 2°43.149 6.1584 -999 -999 7.915777
2008-02-21 08:58:08 51°11.44 2°43.124 6.1623 -999 -999 7.983195
2008-02-21 08:58:13 51°11.432 2°43.098 6.1704 -999 -999 8.084324
2008-02-21 08:58:18 51°11.424 2°43.073 6.1744 -999 -999 8.118033
2008-02-21 08:58:23 51°11.416 2°43.048 6.1832 -999 -999 8.185452
2008-02-21 08:58:28 51°11.408 2°43.022 6.1872 -999 -999 8.387708
2008-02-21 08:58:33 51°11.4 2°42.997 6.1922 -999 -999 8.387708
2008-02-21 08:58:38 51°11.392 2°42.971 6.1978 -999 -999 8.28658
2008-02-21 08:58:43 51°11.384 2°42.946 6.2009 -999 -999 8.421418
2008-02-21 08:58:48 51°11.376 2°42.92 6.2041 -999 -999 8.455127
2008-02-21 08:58:53 51°11.368 2°42.894 6.2073 -999 -999 8.623674
2008-02-21 08:58:58 51°11.359 2°42.869 6.2069 -999 -999 8.657383
2008-02-21 08:59:03 51°11.352 2°42.843 6.2066 -999 -999 8.657383
2008-02-21 08:59:08 51°11.344 2°42.817 6.2102 -999 -999 8.522546
2008-02-21 08:59:13 51°11.335 2°42.791 6.2076 -999 -999 8.724802
2008-02-21 08:59:18 51°11.327 2°42.765 6.2101 -999 -999 8.724802
2008-02-21 08:59:23 51°11.319 2°42.74 6.208 -999 -999 8.657383
2008-02-21 08:59:28 51°11.311 2°42.714 6.2096 -999 -999 8.758512
2008-02-21 08:59:33 51°11.303 2°42.688 6.2084 -999 -999 8.758512
2008-02-21 08:59:38 51°11.296 2°42.662 6.21 -999 -999 8.792221
2008-02-21 08:59:43 51°11.288 2°42.635 6.2077 -999 -999 8.82593
2008-02-21 08:59:48 51°11.28 2°42.609 6.209 -999 -999 8.792221
2008-02-21 08:59:53 51°11.273 2°42.583 6.2086 -999 -999 8.623674
2008-02-21 08:59:58 51°11.265 2°42.557 6.2094 -999 -999 8.758512
2008-02-21 09:00:03 51°11.257 2°42.531 6.2099 -999 -999 8.758512
2008-02-21 09:00:08 51°11.25 2°42.504 6.2104 -999 -999 8.724802
2008-02-21 09:00:13 51°11.241 2°42.479 6.2101 -999 -999 8.85964
2008-02-21 09:00:18 51°11.233 2°42.453 6.2118 -999 -999 8.623674
2008-02-21 09:00:23 51°11.225 2°42.427 6.2115 -999 -999 8.927059
2008-02-21 09:00:29 51°11.216 2°42.396 6.2146 -999 -999 8.724802
2008-02-21 09:00:33 51°11.209 2°42.375 6.2153 -999 -999 8.724802
2008-02-21 09:00:38 51°11.201 2°42.349 6.212 -999 -999 8.85964
2008-02-21 09:00:43 51°11.193 2°42.323 6.2125 -999 -999 8.792221
2008-02-21 09:00:48 51°11.185 2°42.297 6.2143 -999 -999 8.792221
2008-02-21 09:00:53 51°11.177 2°42.271 6.2158 -999 -999 8.893349
2008-02-21 09:00:58 51°11.169 2°42.245 6.2173 -999 -999 8.758512
2008-02-21 09:01:03 51°11.161 2°42.219 6.2152 -999 -999 8.758512
2008-02-21 09:01:08 51°11.153 2°42.193 6.2159 -999 -999 8.82593
2008-02-21 09:01:13 51°11.145 2°42.167 6.2152 -999 -999 8.927059
2008-02-21 09:01:18 51°11.137 2°42.141 6.2157 -999 -999 8.893349
2008-02-21 09:01:23 51°11.129 2°42.115 6.2159 -999 -999 8.893349
2008-02-21 09:01:28 51°11.121 2°42.089 6.2148 -999 -999 8.85964
2008-02-21 09:01:33 51°11.113 2°42.063 6.2171 -999 -999 8.85964
2008-02-21 09:01:38 51°11.105 2°42.037 6.218 -999 -999 8.927059
2008-02-21 09:01:43 51°11.097 2°42.011 6.2145 -999 -999 8.82593
2008-02-21 09:01:48 51°11.089 2°41.984 6.2141 -999 -999 8.927059
2008-02-21 09:01:53 51°11.082 2°41.958 6.2148 -999 -999 8.927059
2008-02-21 09:01:58 51°11.074 2°41.932 6.2121 -999 -999 8.85964
2008-02-21 09:02:03 51°11.066 2°41.905 6.2137 -999 -999 8.85964
2008-02-21 09:02:08 51°11.059 2°41.879 6.2181 -999 -999 8.893349
2008-02-21 09:02:13 51°11.051 2°41.853 6.2175 -999 -999 8.994477
2008-02-21 09:02:18 51°11.043 2°41.826 6.218 -999 -999 9.028187
2008-02-21 09:02:23 51°11.035 2°41.8 6.2191 -999 -999 8.994477
2008-02-21 09:02:28 51°11.027 2°41.774 6.2208 -999 -999 8.960768
2008-02-21 09:02:33 51°11.019 2°41.748 6.2218 -999 -999 8.960768
2008-02-21 09:02:38 51°11.01 2°41.723 6.2255 -999 -999 8.994477
2008-02-21 09:02:43 51°11.002 2°41.697 6.2255 -999 -999 9.061896
2008-02-21 09:02:48 51°10.995 2°41.67 6.2272 -999 -999 9.061896
2008-02-21 09:02:53 51°10.986 2°41.644 6.2336 -999 -999 9.129315
2008-02-21 09:02:58 51°10.979 2°41.617 6.2317 -999 -999 9.095606
2008-02-21 09:03:03 51°10.971 2°41.591 6.235 -999 -999 9.095606
2008-02-21 09:03:08 51°10.963 2°41.565 6.2391 -999 -999 9.028187
2008-02-21 09:03:13 51°10.955 2°41.538 6.2439 -999 -999 9.028187
2008-02-21 09:03:18 51°10.948 2°41.512 6.2462 -999 -999 9.129315
2008-02-21 09:03:23 51°10.94 2°41.486 6.2514 -999 -999 9.061896
2008-02-21 09:03:28 51°10.932 2°41.459 6.2546 -999 -999 9.196734
2008-02-21 09:03:33 51°10.924 2°41.433 6.2589 -999 -999 9.196734
2008-02-21 09:03:38 51°10.917 2°41.407 6.2611 -999 -999 9.095606
2008-02-21 09:03:43 51°10.908 2°41.381 6.2651 -999 -999 9.163024
2008-02-21 09:03:48 51°10.9 2°41.355 6.2661 -999 -999 9.163024
2008-02-21 09:03:53 51°10.892 2°41.329 6.2701 -999 -999 9.297862
2008-02-21 09:03:58 51°10.884 2°41.303 6.2734 -999 -999 9.297862
2008-02-21 09:04:03 51°10.876 2°41.277 6.274 -999 -999 9.297862
2008-02-21 09:04:08 51°10.868 2°41.251 6.277 -999 -999 9.365281
2008-02-21 09:04:13 51°10.859 2°41.225 6.2825 -999 -999 9.4327
2008-02-21 09:04:18 51°10.851 2°41.199 6.2883 -999 -999 9.4327
2008-02-21 09:04:23 51°10.844 2°41.172 6.2874 -999 -999 9.365281
2008-02-21 09:04:28 51°10.835 2°41.147 6.2939 -999 -999 9.500118
2008-02-21 09:04:33 51°10.827 2°41.12 6.2947 -999 -999 9.500118
2008-02-21 09:04:38 51°10.82 2°41.094 6.2961 -999 -999 9.500118
2008-02-21 09:04:43 51°10.811 2°41.068 6.2987 -999 -999 9.500118
2008-02-21 09:04:48 51°10.803 2°41.042 6.3029 -999 -999 9.466409
2008-02-21 09:04:53 51°10.795 2°41.016 6.3079 -999 -999 9.601247
2008-02-21 09:04:58 51°10.787 2°40.99 6.3107 -999 -999 9.567537
2008-02-21 09:05:03 51°10.779 2°40.965 6.3215 -999 -999 9.567537
2008-02-21 09:05:08 51°10.77 2°40.938 6.3208 -999 -999 9.736084
2008-02-21 09:05:13 51°10.763 2°40.912 6.3257 -999 -999 9.702375
2008-02-21 09:05:18 51°10.754 2°40.886 6.3318 -999 -999 9.702375
2008-02-21 09:05:23 51°10.747 2°40.86 6.3358 -999 -999 9.668665
2008-02-21 09:05:28 51°10.739 2°40.834 6.3413 -999 -999 9.736084
2008-02-21 09:05:33 51°10.731 2°40.808 6.3445 -999 -999 9.736084
2008-02-21 09:05:38 51°10.723 2°40.782 6.3466 -999 -999 9.837212
2008-02-21 09:05:43 51°10.715 2°40.755 6.352 -999 -999 9.938341
2008-02-21 09:05:48 51°10.707 2°40.729 6.352 -999 -999 10.039469
2008-02-21 09:05:53 51°10.699 2°40.703 6.3555 -999 -999 10.073178
2008-02-21 09:05:58 51°10.691 2°40.677 6.3595 -999 -999 10.174306
2008-02-21 09:06:03 51°10.683 2°40.651 6.3594 -999 -999 10.174306
2008-02-21 09:06:08 51°10.675 2°40.625 6.3599 -999 -999 10.241725
2008-02-21 09:06:13 51°10.666 2°40.599 6.3631 -999 -999 10.208016
2008-02-21 09:06:18 51°10.658 2°40.573 6.3658 -999 -999 10.376563
2008-02-21 09:06:23 51°10.65 2°40.548 6.3636 -999 -999 10.410272
2008-02-21 09:06:28 51°10.642 2°40.521 6.3645 -999 -999 10.410272
2008-02-21 09:06:33 51°10.634 2°40.496 6.3643 -999 -999 10.410272
2008-02-21 09:06:38 51°10.626 2°40.47 6.3676 -999 -999 10.5114
2008-02-21 09:06:43 51°10.617 2°40.444 6.367 -999 -999 10.477691
2008-02-21 09:06:48 51°10.609 2°40.417 6.3669 -999 -999 10.443982
2008-02-21 09:06:53 51°10.601 2°40.391 6.3688 -999 -999 10.477691
2008-02-21 09:06:58 51°10.593 2°40.365 6.3681 -999 -999 10.410272
2008-02-21 09:07:03 51°10.585 2°40.339 6.3686 -999 -999 10.410272
2008-02-21 09:07:08 51°10.577 2°40.313 6.3683 -999 -999 10.477691
2008-02-21 09:07:13 51°10.569 2°40.287 6.3699 -999 -999 10.477691
2008-02-21 09:07:18 51°10.56 2°40.261 6.37 -999 -999 10.410272
2008-02-21 09:07:23 51°10.552 2°40.235 6.3691 -999 -999 10.410272
2008-02-21 09:07:28 51°10.544 2°40.209 6.3664 -999 -999 10.376563
2008-02-21 09:07:33 51°10.536 2°40.183 6.3661 -999 -999 10.376563
2008-02-21 09:07:38 51°10.528 2°40.157 6.3654 -999 -999 10.376563
2008-02-21 09:07:43 51°10.52 2°40.13 6.3646 -999 -999 10.376563
2008-02-21 09:07:48 51°10.513 2°40.104 6.3649 -999 -999 10.477691
2008-02-21 09:07:53 51°10.505 2°40.078 6.3644 -999 -999 10.54511
2008-02-21 09:07:58 51°10.497 2°40.051 6.3642 -999 -999 10.410272
2008-02-21 09:08:03 51°10.488 2°40.025 6.3641 -999 -999 10.410272
2008-02-21 09:08:08 51°10.48 2°39.999 6.3645 -999 -999 10.477691
2008-02-21 09:08:13 51°10.472 2°39.973 6.3628 -999 -999 10.410272
2008-02-21 09:08:18 51°10.464 2°39.947 6.3638 -999 -999 10.5114
2008-02-21 09:08:23 51°10.456 2°39.921 6.3625 -999 -999 10.376563
2008-02-21 09:08:28 51°10.447 2°39.895 6.3632 -999 -999 10.410272
2008-02-21 09:08:33 51°10.439 2°39.869 6.364 -999 -999 10.410272
2008-02-21 09:08:38 51°10.431 2°39.842 6.3604 -999 -999 10.342853
2008-02-21 09:08:43 51°10.423 2°39.816 6.3616 -999 -999 10.410272
2008-02-21 09:08:48 51°10.415 2°39.79 6.3632 -999 -999 10.443982
2008-02-21 09:08:53 51°10.407 2°39.764 6.3606 -999 -999 10.342853
2008-02-21 09:08:58 51°10.399 2°39.737 6.36 -999 -999 10.376563
2008-02-21 09:09:03 51°10.392 2°39.711 6.3594 -999 -999 10.376563
2008-02-21 09:09:08 51°10.383 2°39.685 6.3597 -999 -999 10.309144
2008-02-21 09:09:13 51°10.375 2°39.658 6.3603 -999 -999 10.309144
2008-02-21 09:09:18 51°10.368 2°39.632 6.358 -999 -999 10.275435
2008-02-21 09:09:23 51°10.36 2°39.606 6.3581 -999 -999 10.342853
2008-02-21 09:09:29 51°10.35 2°39.574 6.3578 -999 -999 10.275435
2008-02-21 09:09:33 51°10.344 2°39.553 6.3582 -999 -999 10.275435
2008-02-21 09:09:38 51°10.336 2°39.527 6.3576 -999 -999 10.376563
2008-02-21 09:09:43 51°10.327 2°39.501 6.3568 -999 -999 10.275435
2008-02-21 09:09:48 51°10.319 2°39.475 6.3539 -999 -999 10.174306
2008-02-21 09:09:53 51°10.311 2°39.449 6.3541 -999 -999 10.208016
2008-02-21 09:09:58 51°10.303 2°39.423 6.355 -999 -999 10.073178
2008-02-21 09:10:03 51°10.295 2°39.397 6.3517 -999 -999 10.073178
2008-02-21 09:10:08 51°10.287 2°39.37 6.3552 -999 -999 10.140597
2008-02-21 09:10:13 51°10.279 2°39.344 6.3521 -999 -999 10.208016
2008-02-21 09:10:18 51°10.27 2°39.318 6.3513 -999 -999 10.275435
2008-02-21 09:10:23 51°10.262 2°39.292 6.3513 -999 -999 10.174306
2008-02-21 09:10:28 51°10.254 2°39.266 6.3508 -999 -999 10.241725
2008-02-21 09:10:33 51°10.246 2°39.24 6.3492 -999 -999 10.241725
2008-02-21 09:10:38 51°10.238 2°39.213 6.3502 -999 -999 10.073178
2008-02-21 09:10:43 51°10.229 2°39.187 6.3485 -999 -999 10.140597
2008-02-21 09:10:48 51°10.221 2°39.161 6.349 -999 -999 10.073178
2008-02-21 09:10:53 51°10.213 2°39.135 6.3497 -999 -999 10.073178
2008-02-21 09:10:58 51°10.205 2°39.109 6.3499 -999 -999 10.208016
2008-02-21 09:11:03 51°10.197 2°39.083 6.3464 -999 -999 10.208016
2008-02-21 09:11:08 51°10.189 2°39.056 6.3461 -999 -999 10.140597
2008-02-21 09:11:13 51°10.18 2°39.03 6.3468 -999 -999 10.140597
2008-02-21 09:11:18 51°10.173 2°39.003 6.3491 -999 -999 10.208016
2008-02-21 09:11:23 51°10.165 2°38.977 6.3473 -999 -999 10.073178
2008-02-21 09:11:28 51°10.157 2°38.951 6.3448 -999 -999 10.073178
2008-02-21 09:11:33 51°10.149 2°38.924 6.3492 -999 -999 10.073178
2008-02-21 09:11:38 51°10.141 2°38.898 6.3454 -999 -999 10.140597
2008-02-21 09:11:43 51°10.133 2°38.872 6.3477 -999 -999 10.174306
2008-02-21 09:11:48 51°10.125 2°38.845 6.3469 -999 -999 10.106888
2008-02-21 09:11:53 51°10.116 2°38.819 6.3467 -999 -999 10.039469
2008-02-21 09:11:58 51°10.109 2°38.792 6.3428 -999 -999 10.005759
2008-02-21 09:12:03 51°10.101 2°38.766 6.3444 -999 -999 10.005759
2008-02-21 09:12:08 51°10.092 2°38.739 6.3439 -999 -999 9.97205
2008-02-21 09:12:13 51°10.085 2°38.713 6.3413 -999 -999 10.039469
2008-02-21 09:12:18 51°10.076 2°38.687 6.3435 -999 -999 10.073178
2008-02-21 09:12:23 51°10.068 2°38.66 6.3421 -999 -999 10.005759
2008-02-21 09:12:28 51°10.06 2°38.634 6.3427 -999 -999 9.97205
2008-02-21 09:12:33 51°10.052 2°38.608 6.3419 -999 -999 9.97205
2008-02-21 09:12:38 51°10.044 2°38.581 6.3434 -999 -999 9.938341
2008-02-21 09:12:43 51°10.036 2°38.555 6.3415 -999 -999 9.97205
2008-02-21 09:12:48 51°10.027 2°38.529 6.3408 -999 -999 9.97205
2008-02-21 09:12:53 51°10.019 2°38.503 6.3401 -999 -999 10.039469
2008-02-21 09:12:58 51°10.011 2°38.476 6.3378 -999 -999 10.073178
2008-02-21 09:13:03 51°10.003 2°38.45 6.3423 -999 -999 10.073178
2008-02-21 09:13:08 51°9.995 2°38.424 6.3429 -999 -999 9.938341
2008-02-21 09:13:13 51°9.987 2°38.397 6.3397 -999 -999 9.97205
2008-02-21 09:13:18 51°9.978 2°38.371 6.3385 -999 -999 9.904631
2008-02-21 09:13:23 51°9.97 2°38.345 6.3391 -999 -999 9.904631
2008-02-21 09:13:28 51°9.962 2°38.318 6.3402 -999 -999 9.904631
2008-02-21 09:13:33 51°9.955 2°38.292 6.3401 -999 -999 9.904631
2008-02-21 09:13:38 51°9.946 2°38.265 6.3362 -999 -999 9.837212
2008-02-21 09:13:43 51°9.939 2°38.239 6.3408 -999 -999 9.97205
2008-02-21 09:13:48 51°9.93 2°38.213 6.3382 -999 -999 9.870922
2008-02-21 09:13:53 51°9.922 2°38.186 6.336 -999 -999 9.938341
2008-02-21 09:13:58 51°9.914 2°38.16 6.3381 -999 -999 9.803503
2008-02-21 09:14:03 51°9.906 2°38.133 6.3363 -999 -999 9.803503
2008-02-21 09:14:08 51°9.898 2°38.107 6.3391 -999 -999 9.97205
2008-02-21 09:14:13 51°9.891 2°38.08 6.3348 -999 -999 9.837212
2008-02-21 09:14:18 51°9.884 2°38.053 6.3333 -999 -999 9.938341
2008-02-21 09:14:23 51°9.876 2°38.027 6.3325 -999 -999 9.904631
2008-02-21 09:14:28 51°9.87 2°38 6.333 -999 -999 9.904631
2008-02-21 09:14:33 51°9.862 2°37.972 6.3335 -999 -999 9.904631
2008-02-21 09:14:38 51°9.856 2°37.945 6.3299 -999 -999 9.904631
2008-02-21 09:14:43 51°9.849 2°37.918 6.33 -999 -999 9.837212
2008-02-21 09:14:48 51°9.842 2°37.89 6.3271 -999 -999 9.97205
2008-02-21 09:14:53 51°9.835 2°37.863 6.3279 -999 -999 9.870922
2008-02-21 09:14:58 51°9.828 2°37.836 6.3298 -999 -999 9.803503
2008-02-21 09:15:03 51°9.821 2°37.809 6.3256 -999 -999 9.803503
2008-02-21 09:15:08 51°9.814 2°37.782 6.3255 -999 -999 9.904631
2008-02-21 09:15:13 51°9.807 2°37.755 6.3249 -999 -999 9.938341
2008-02-21 09:15:18 51°9.8 2°37.728 6.3254 -999 -999 9.97205
2008-02-21 09:15:23 51°9.792 2°37.701 6.3202 -999 -999 9.904631
2008-02-21 09:15:28 51°9.785 2°37.674 6.3214 -999 -999 9.904631
2008-02-21 09:15:33 51°9.778 2°37.647 6.3217 -999 -999 9.904631
2008-02-21 09:15:38 51°9.771 2°37.62 6.315 -999 -999 9.803503
2008-02-21 09:15:43 51°9.764 2°37.593 6.3165 -999 -999 10.005759
2008-02-21 09:15:48 51°9.757 2°37.566 6.315 -999 -999 9.938341
2008-02-21 09:15:53 51°9.75 2°37.539 6.313 -999 -999 9.938341
2008-02-21 09:15:58 51°9.743 2°37.512 6.313 -999 -999 9.938341
2008-02-21 09:16:03 51°9.736 2°37.484 6.3149 -999 -999 9.938341
2008-02-21 09:16:08 51°9.729 2°37.457 6.3127 -999 -999 10.005759
2008-02-21 09:16:13 51°9.722 2°37.43 6.3099 -999 -999 9.803503
2008-02-21 09:16:18 51°9.715 2°37.403 6.3094 -999 -999 9.837212
2008-02-21 09:16:23 51°9.708 2°37.376 6.3076 -999 -999 9.870922
2008-02-21 09:16:28 51°9.701 2°37.348 6.3061 -999 -999 9.803503
2008-02-21 09:16:33 51°9.694 2°37.322 6.3036 -999 -999 9.803503
2008-02-21 09:16:38 51°9.687 2°37.295 6.3073 -999 -999 9.837212
2008-02-21 09:16:43 51°9.68 2°37.267 6.3076 -999 -999 9.736084
2008-02-21 09:16:48 51°9.672 2°37.24 6.3071 -999 -999 9.769794
2008-02-21 09:16:53 51°9.665 2°37.213 6.3014 -999 -999 9.837212
2008-02-21 09:16:58 51°9.658 2°37.186 6.3009 -999 -999 9.904631
2008-02-21 09:17:03 51°9.651 2°37.159 6.3032 -999 -999 9.904631
2008-02-21 09:17:08 51°9.644 2°37.133 6.3009 -999 -999 9.870922
2008-02-21 09:17:13 51°9.637 2°37.105 6.2974 -999 -999 9.870922
2008-02-21 09:17:18 51°9.63 2°37.078 6.2965 -999 -999 9.837212
2008-02-21 09:17:23 51°9.623 2°37.051 6.2932 -999 -999 9.837212
2008-02-21 09:17:28 51°9.616 2°37.024 6.2956 -999 -999 9.702375
2008-02-21 09:17:33 51°9.609 2°36.997 6.2882 -999 -999 9.702375
2008-02-21 09:17:38 51°9.602 2°36.97 6.2886 -999 -999 9.702375
2008-02-21 09:17:43 51°9.595 2°36.943 6.2827 -999 -999 9.769794
2008-02-21 09:17:48 51°9.588 2°36.916 6.2819 -999 -999 9.702375
2008-02-21 09:17:53 51°9.581 2°36.888 6.2789 -999 -999 9.803503
2008-02-21 09:17:58 51°9.574 2°36.861 6.277 -999 -999 9.870922
2008-02-21 09:18:03 51°9.567 2°36.834 6.2703 -999 -999 9.870922
2008-02-21 09:18:08 51°9.559 2°36.807 6.27 -999 -999 9.837212
2008-02-21 09:18:13 51°9.552 2°36.78 6.2648 -999 -999 9.803503
2008-02-21 09:18:18 51°9.545 2°36.753 6.264 -999 -999 9.769794
2008-02-21 09:18:23 51°9.538 2°36.726 6.2607 -999 -999 9.769794
2008-02-21 09:18:28 51°9.531 2°36.698 6.2541 -999 -999 9.837212
2008-02-21 09:18:33 51°9.524 2°36.672 6.2572 -999 -999 9.837212
2008-02-21 09:18:38 51°9.517 2°36.644 6.2499 -999 -999 9.803503
2008-02-21 09:18:43 51°9.51 2°36.617 6.2473 -999 -999 9.736084
2008-02-21 09:18:48 51°9.504 2°36.59 6.2457 -999 -999 9.769794
2008-02-21 09:18:53 51°9.497 2°36.564 6.2426 -999 -999 9.668665
2008-02-21 09:18:58 51°9.491 2°36.54 6.2371 -999 -999 9.736084
2008-02-21 09:19:03 51°9.485 2°36.517 6.2375 -999 -999 9.736084
2008-02-21 09:19:08 51°9.479 2°36.495 6.23 -999 -999 9.769794
2008-02-21 09:19:13 51°9.473 2°36.473 6.2284 -999 -999 9.803503
2008-02-21 09:19:18 51°9.468 2°36.452 6.2213 -999 -999 9.904631
2008-02-21 09:19:23 51°9.462 2°36.432 6.221 -999 -999 9.837212
2008-02-21 09:19:28 51°9.458 2°36.413 6.2151 -999 -999 9.803503
2008-02-21 09:19:33 51°9.453 2°36.396 6.214 -999 -999 9.803503
2008-02-21 09:19:38 51°9.448 2°36.38 6.2141 -999 -999 9.938341
2008-02-21 09:19:43 51°9.443 2°36.366 6.2089 -999 -999 9.97205
2008-02-21 09:19:48 51°9.437 2°36.353 6.2085 -999 -999 10.005759
2008-02-21 09:19:53 51°9.431 2°36.342 6.2024 -999 -999 10.073178
2008-02-21 09:19:58 51°9.426 2°36.333 6.2051 -999 -999 10.039469
2008-02-21 09:20:03 51°9.42 2°36.325 6.2026 -999 -999 10.039469
2008-02-21 09:20:08 51°9.414 2°36.319 6.2001 -999 -999 10.073178
2008-02-21 09:20:13 51°9.408 2°36.313 6.201 -999 -999 10.073178
2008-02-21 09:20:18 51°9.402 2°36.309 6.1997 -999 -999 10.106888
2008-02-21 09:20:23 51°9.396 2°36.306 6.1986 -999 -999 10.005759
2008-02-21 09:20:28 51°9.39 2°36.304 6.1995 -999 -999 10.005759
2008-02-21 09:20:33 51°9.384 2°36.303 6.1961 -999 -999 10.005759
2008-02-21 09:20:38 51°9.378 2°36.303 6.1984 -999 -999 9.97205
2008-02-21 09:20:43 51°9.373 2°36.304 6.1961 -999 -999 9.97205
2008-02-21 09:20:48 51°9.367 2°36.306 6.1961 -999 -999 10.039469
2008-02-21 09:20:53 51°9.362 2°36.309 6.1983 -999 -999 9.97205
2008-02-21 09:20:58 51°9.357 2°36.313 6.1976 -999 -999 10.039469
2008-02-21 09:21:03 51°9.352 2°36.317 6.1989 -999 -999 10.039469
2008-02-21 09:21:08 51°9.347 2°36.322 6.1967 -999 -999 9.938341
2008-02-21 09:21:13 51°9.343 2°36.328 6.1948 -999 -999 10.005759
2008-02-21 09:21:18 51°9.339 2°36.334 6.1978 -999 -999 10.005759
2008-02-21 09:21:23 51°9.334 2°36.34 6.1994 -999 -999 9.97205
2008-02-21 09:21:28 51°9.33 2°36.348 6.2002 -999 -999 9.97205
2008-02-21 09:21:33 51°9.327 2°36.355 6.2 -999 -999 9.97205
2008-02-21 09:21:38 51°9.323 2°36.363 6.2005 -999 -999 10.073178
2008-02-21 09:21:43 51°9.319 2°36.371 6.1989 -999 -999 9.904631
2008-02-21 09:21:48 51°9.315 2°36.379 6.1994 -999 -999 9.938341
2008-02-21 09:21:53 51°9.311 2°36.388 6.2057 -999 -999 9.97205
2008-02-21 09:21:58 51°9.308 2°36.397 6.2061 -999 -999 9.938341
2008-02-21 09:22:03 51°9.305 2°36.406 6.2089 -999 -999 9.938341
2008-02-21 09:22:08 51°9.303 2°36.415 6.2101 -999 -999 10.073178
2008-02-21 09:22:13 51°9.301 2°36.423 6.212 -999 -999 9.97205
2008-02-21 09:22:18 51°9.3 2°36.431 6.2166 -999 -999 10.005759
2008-02-21 09:22:23 51°9.299 2°36.438 6.2187 -999 -999 10.005759
2008-02-21 09:22:28 51°9.298 2°36.445 6.218 -999 -999 10.005759
2008-02-21 09:22:33 51°9.298 2°36.451 6.2206 -999 -999 10.005759
2008-02-21 09:22:38 51°9.298 2°36.458 6.2209 -999 -999 9.803503
2008-02-21 09:22:43 51°9.298 2°36.464 6.2229 -999 -999 9.870922
2008-02-21 09:22:48 51°9.298 2°36.469 6.2268 -999 -999 9.870922
2008-02-21 09:22:53 51°9.298 2°36.475 6.2277 -999 -999 9.870922
2008-02-21 09:22:58 51°9.299 2°36.48 6.2282 -999 -999 9.904631
2008-02-21 09:23:03 51°9.3 2°36.485 6.2288 -999 -999 9.904631
2008-02-21 09:23:08 51°9.3 2°36.49 6.233 -999 -999 9.938341
2008-02-21 09:23:13 51°9.302 2°36.495 6.2351 -999 -999 9.769794
2008-02-21 09:23:18 51°9.302 2°36.5 6.2369 -999 -999 9.702375
2008-02-21 09:23:23 51°9.303 2°36.504 6.2381 -999 -999 9.736084
2008-02-21 09:23:28 51°9.304 2°36.509 6.2394 -999 -999 9.803503
2008-02-21 09:23:33 51°9.305 2°36.513 6.2423 -999 -999 9.803503
2008-02-21 09:23:38 51°9.306 2°36.517 6.2428 -999 -999 9.668665
2008-02-21 09:23:43 51°9.307 2°36.522 6.244 -999 -999 9.567537
2008-02-21 09:23:48 51°9.308 2°36.525 6.2457 -999 -999 9.500118
2008-02-21 09:23:53 51°9.308 2°36.53 6.249 -999 -999 9.466409
2008-02-21 09:23:58 51°9.309 2°36.534 6.2519 -999 -999 9.466409
2008-02-21 09:24:03 51°9.31 2°36.537 6.2525 -999 -999 9.466409
2008-02-21 09:24:08 51°9.311 2°36.541 6.2632 -999 -999 9.533828
2008-02-21 09:24:13 51°9.311 2°36.545 6.2718 -999 -999 9.466409
2008-02-21 09:24:18 51°9.312 2°36.548 6.2749 -999 -999 9.365281
2008-02-21 09:24:23 51°9.313 2°36.552 6.2822 -999 -999 9.297862
2008-02-21 09:24:28 51°9.313 2°36.555 6.286 -999 -999 10.005759
2008-02-21 09:24:33 51°9.313 2°36.557 6.2907 -999 -999 10.005759
2008-02-21 09:24:38 51°9.314 2°36.56 6.2949 -999 -999 9.736084
2008-02-21 09:24:43 51°9.314 2°36.561 6.2959 -999 -999 9.803503
2008-02-21 09:24:48 51°9.314 2°36.563 6.2962 -999 -999 9.567537
2008-02-21 09:24:53 51°9.313 2°36.564 6.3062 -999 -999 9.500118
2008-02-21 09:24:58 51°9.313 2°36.565 6.3161 -999 -999 9.533828
2008-02-21 09:25:03 51°9.313 2°36.566 6.3211 -999 -999 9.533828
2008-02-21 09:25:08 51°9.313 2°36.567 6.3213 -999 -999 9.601247
2008-02-21 09:25:13 51°9.313 2°36.569 6.3271 -999 -999 9.466409
2008-02-21 09:25:18 51°9.313 2°36.57 6.3291 -999 -999 9.601247
2008-02-21 09:25:23 51°9.312 2°36.571 6.338 -999 -999 9.39899
2008-02-21 09:25:28 51°9.312 2°36.572 6.3271 -999 -999 9.297862
2008-02-21 09:25:33 51°9.312 2°36.574 6.3339 -999 -999 9.297862
2008-02-21 09:25:38 51°9.312 2°36.575 6.3266 -999 -999 8.994477
2008-02-21 09:25:43 51°9.311 2°36.576 6.3259 -999 -999 9.196734
2008-02-21 09:25:48 51°9.311 2°36.578 6.3265 -999 -999 9.39899
2008-02-21 09:25:53 51°9.311 2°36.579 6.3244 -999 -999 9.297862
2008-02-21 09:25:58 51°9.311 2°36.581 6.3385 -999 -999 9.331571
2008-02-21 09:26:03 51°9.31 2°36.582 6.3296 -999 -999 9.331571
2008-02-21 09:26:08 51°9.31 2°36.583 6.3304 -999 -999 9.196734
2008-02-21 09:26:13 51°9.31 2°36.585 6.3282 -999 -999 9.196734
2008-02-21 09:26:18 51°9.31 2°36.586 6.332 -999 -999 9.230443
2008-02-21 09:26:23 51°9.309 2°36.587 6.3334 -999 -999 9.196734
2008-02-21 09:26:28 51°9.309 2°36.589 6.326 -999 -999 9.196734
2008-02-21 09:26:33 51°9.309 2°36.59 6.3443 -999 -999 9.196734
2008-02-21 09:26:38 51°9.309 2°36.592 6.3399 -999 -999 9.095606
2008-02-21 09:26:43 51°9.308 2°36.593 6.3359 -999 -999 9.163024
2008-02-21 09:26:48 51°9.308 2°36.594 6.3422 -999 -999 9.129315
2008-02-21 09:26:53 51°9.307 2°36.596 6.3438 -999 -999 9.129315
2008-02-21 09:26:58 51°9.307 2°36.597 6.3475 -999 -999 9.129315
2008-02-21 09:27:03 51°9.306 2°36.599 6.3531 -999 -999 9.129315
2008-02-21 09:27:08 51°9.306 2°36.6 6.3607 -999 -999 9.163024
2008-02-21 09:27:13 51°9.306 2°36.601 6.3597 -999 -999 9.028187
2008-02-21 09:27:18 51°9.305 2°36.603 6.3647 -999 -999 9.129315
2008-02-21 09:27:23 51°9.305 2°36.604 6.3692 -999 -999 9.129315
2008-02-21 09:27:28 51°9.305 2°36.606 6.3665 -999 -999 9.163024
2008-02-21 09:27:33 51°9.304 2°36.607 6.3645 -999 -999 9.163024
2008-02-21 09:27:38 51°9.304 2°36.609 6.3726 -999 -999 9.061896
2008-02-21 09:27:43 51°9.303 2°36.61 6.3673 -999 -999 9.061896
2008-02-21 09:27:48 51°9.303 2°36.612 6.3652 -999 -999 9.129315
2008-02-21 09:27:53 51°9.303 2°36.613 6.3689 -999 -999 9.061896
2008-02-21 09:27:58 51°9.302 2°36.615 6.371 -999 -999 9.028187
2008-02-21 09:28:03 51°9.302 2°36.616 6.3748 -999 -999 9.028187
2008-02-21 09:28:08 51°9.302 2°36.618 6.3765 -999 -999 9.129315
2008-02-21 09:28:13 51°9.301 2°36.62 6.3555 -999 -999 9.061896
2008-02-21 09:28:18 51°9.3 2°36.621 6.3673 -999 -999 8.960768
2008-02-21 09:28:23 51°9.3 2°36.623 6.3824 -999 -999 8.893349
2008-02-21 09:28:28 51°9.3 2°36.624 6.3693 -999 -999 8.994477
2008-02-21 09:28:33 51°9.299 2°36.626 6.3638 -999 -999 8.994477
2008-02-21 09:28:38 51°9.299 2°36.627 6.3713 -999 -999 8.960768
2008-02-21 09:28:43 51°9.298 2°36.629 6.3671 -999 -999 8.960768
2008-02-21 09:28:48 51°9.298 2°36.63 6.3677 -999 -999 8.960768